sensor_id;sensor_type;location;lat;lon;timestamp;P1;durP1;ratioP1;P2;durP2;ratioP2
36715;SDS011;22699;51.034;3.730;2022-07-10T00:01:02;3.88;;;1.27;;
36715;SDS011;22699;51.034;3.730;2022-07-10T00:03:28;5.60;;;1.98;;
36715;SDS011;22699;51.034;3.730;2022-07-10T00:05:54;6.57;;;1.90;;
36715;SDS011;22699;51.034;3.730;2022-07-10T00:08:28;4.93;;;2.33;;
36715;SDS011;22699;51.034;3.730;2022-07-10T00:13:22;8.90;;;2.53;;
36715;SDS011;22699;51.034;3.730;2022-07-10T00:15:48;7.85;;;2.85;;
36715;SDS011;22699;51.034;3.730;2022-07-10T00:18:14;7.97;;;3.10;;
36715;SDS011;22699;51.034;3.730;2022-07-10T00:20:42;6.50;;;3.00;;
36715;SDS011;22699;51.034;3.730;2022-07-10T00:23:07;6.60;;;2.53;;
36715;SDS011;22699;51.034;3.730;2022-07-10T00:25:35;11.40;;;3.38;;
36715;SDS011;22699;51.034;3.730;2022-07-10T00:28:01;5.78;;;2.50;;
36715;SDS011;22699;51.034;3.730;2022-07-10T00:30:28;8.05;;;2.97;;
36715;SDS011;22699;51.034;3.730;2022-07-10T00:33:04;6.40;;;2.88;;
36715;SDS011;22699;51.034;3.730;2022-07-10T00:35:31;8.60;;;3.10;;
36715;SDS011;22699;51.034;3.730;2022-07-10T00:37:58;7.43;;;3.03;;
36715;SDS011;22699;51.034;3.730;2022-07-10T00:40:24;5.35;;;2.88;;
36715;SDS011;22699;51.034;3.730;2022-07-10T00:42:52;4.82;;;2.40;;
36715;SDS011;22699;51.034;3.730;2022-07-10T00:45:18;9.48;;;3.38;;
36715;SDS011;22699;51.034;3.730;2022-07-10T00:47:45;12.18;;;3.55;;
36715;SDS011;22699;51.034;3.730;2022-07-10T00:50:12;9.88;;;3.42;;
36715;SDS011;22699;51.034;3.730;2022-07-10T00:52:41;8.93;;;3.22;;
36715;SDS011;22699;51.034;3.730;2022-07-10T00:55:07;6.90;;;2.85;;
36715;SDS011;22699;51.034;3.730;2022-07-10T00:57:35;5.63;;;3.20;;
36715;SDS011;22699;51.034;3.730;2022-07-10T01:02:35;6.18;;;3.53;;
36715;SDS011;22699;51.034;3.730;2022-07-10T01:05:01;5.10;;;3.40;;
36715;SDS011;22699;51.034;3.730;2022-07-10T01:07:29;7.35;;;3.05;;
36715;SDS011;22699;51.034;3.730;2022-07-10T01:10:01;4.97;;;2.72;;
36715;SDS011;22699;51.034;3.730;2022-07-10T01:12:27;7.30;;;3.40;;
36715;SDS011;22699;51.034;3.730;2022-07-10T01:14:54;7.45;;;3.60;;
36715;SDS011;22699;51.034;3.730;2022-07-10T01:19:49;8.13;;;3.55;;
36715;SDS011;22699;51.034;3.730;2022-07-10T01:24:45;5.75;;;3.22;;
36715;SDS011;22699;51.034;3.730;2022-07-10T01:27:12;8.20;;;3.60;;
36715;SDS011;22699;51.034;3.730;2022-07-10T01:29:38;4.38;;;3.13;;
36715;SDS011;22699;51.034;3.730;2022-07-10T01:32:05;8.68;;;4.32;;
36715;SDS011;22699;51.034;3.730;2022-07-10T01:34:31;11.65;;;3.75;;
36715;SDS011;22699;51.034;3.730;2022-07-10T01:37:01;8.82;;;3.67;;
36715;SDS011;22699;51.034;3.730;2022-07-10T01:39:35;9.02;;;3.72;;
36715;SDS011;22699;51.034;3.730;2022-07-10T01:42:01;8.35;;;3.58;;
36715;SDS011;22699;51.034;3.730;2022-07-10T01:46:57;7.07;;;3.55;;
36715;SDS011;22699;51.034;3.730;2022-07-10T01:49:23;8.52;;;3.50;;
36715;SDS011;22699;51.034;3.730;2022-07-10T01:51:51;6.78;;;3.42;;
36715;SDS011;22699;51.034;3.730;2022-07-10T01:54:18;7.05;;;3.95;;
36715;SDS011;22699;51.034;3.730;2022-07-10T01:56:47;5.93;;;3.72;;
36715;SDS011;22699;51.034;3.730;2022-07-10T01:59:12;10.20;;;3.80;;
36715;SDS011;22699;51.034;3.730;2022-07-10T02:01:38;9.00;;;3.97;;
36715;SDS011;22699;51.034;3.730;2022-07-10T02:04:04;3.92;;;3.15;;
36715;SDS011;22699;51.034;3.730;2022-07-10T02:06:49;10.35;;;4.63;;
36715;SDS011;22699;51.034;3.730;2022-07-10T02:09:14;7.95;;;3.80;;
36715;SDS011;22699;51.034;3.730;2022-07-10T02:11:40;8.50;;;4.07;;
36715;SDS011;22699;51.034;3.730;2022-07-10T02:14:06;7.57;;;4.60;;
36715;SDS011;22699;51.034;3.730;2022-07-10T02:16:33;7.95;;;3.58;;
36715;SDS011;22699;51.034;3.730;2022-07-10T02:19:00;8.20;;;3.80;;
36715;SDS011;22699;51.034;3.730;2022-07-10T02:21:26;5.15;;;3.92;;
36715;SDS011;22699;51.034;3.730;2022-07-10T02:23:57;7.60;;;4.05;;
36715;SDS011;22699;51.034;3.730;2022-07-10T02:26:24;11.68;;;4.10;;
36715;SDS011;22699;51.034;3.730;2022-07-10T02:28:53;6.15;;;3.38;;
36715;SDS011;22699;51.034;3.730;2022-07-10T02:31:20;8.00;;;4.10;;
36715;SDS011;22699;51.034;3.730;2022-07-10T02:33:52;8.52;;;3.55;;
36715;SDS011;22699;51.034;3.730;2022-07-10T02:36:18;7.47;;;4.13;;
36715;SDS011;22699;51.034;3.730;2022-07-10T02:38:43;7.50;;;4.30;;
36715;SDS011;22699;51.034;3.730;2022-07-10T02:41:10;8.63;;;4.40;;
36715;SDS011;22699;51.034;3.730;2022-07-10T02:43:37;7.50;;;4.05;;
36715;SDS011;22699;51.034;3.730;2022-07-10T02:46:02;8.75;;;3.60;;
36715;SDS011;22699;51.034;3.730;2022-07-10T02:48:30;10.02;;;4.03;;
36715;SDS011;22699;51.034;3.730;2022-07-10T02:50:58;5.07;;;3.58;;
36715;SDS011;22699;51.034;3.730;2022-07-10T02:53:25;8.98;;;3.97;;
36715;SDS011;22699;51.034;3.730;2022-07-10T02:55:50;7.72;;;3.65;;
36715;SDS011;22699;51.034;3.730;2022-07-10T02:58:16;6.60;;;3.35;;
36715;SDS011;22699;51.034;3.730;2022-07-10T03:00:43;8.43;;;3.95;;
36715;SDS011;22699;51.034;3.730;2022-07-10T03:03:12;8.63;;;3.72;;
36715;SDS011;22699;51.034;3.730;2022-07-10T03:05:44;10.38;;;4.18;;
36715;SDS011;22699;51.034;3.730;2022-07-10T03:08:12;6.97;;;3.47;;
36715;SDS011;22699;51.034;3.730;2022-07-10T03:10:40;5.95;;;3.63;;
36715;SDS011;22699;51.034;3.730;2022-07-10T03:13:06;8.50;;;3.42;;
36715;SDS011;22699;51.034;3.730;2022-07-10T03:15:33;9.73;;;4.07;;
36715;SDS011;22699;51.034;3.730;2022-07-10T03:17:59;5.18;;;3.55;;
36715;SDS011;22699;51.034;3.730;2022-07-10T03:20:25;8.10;;;4.32;;
36715;SDS011;22699;51.034;3.730;2022-07-10T03:22:51;11.95;;;4.28;;
36715;SDS011;22699;51.034;3.730;2022-07-10T03:25:19;7.88;;;4.22;;
36715;SDS011;22699;51.034;3.730;2022-07-10T03:27:46;6.10;;;3.53;;
36715;SDS011;22699;51.034;3.730;2022-07-10T03:30:14;6.75;;;4.18;;
36715;SDS011;22699;51.034;3.730;2022-07-10T03:32:43;8.77;;;4.32;;
36715;SDS011;22699;51.034;3.730;2022-07-10T03:35:10;7.47;;;3.75;;
36715;SDS011;22699;51.034;3.730;2022-07-10T03:37:35;8.98;;;4.32;;
36715;SDS011;22699;51.034;3.730;2022-07-10T03:40:01;6.00;;;3.38;;
36715;SDS011;22699;51.034;3.730;2022-07-10T03:42:28;6.88;;;3.80;;
36715;SDS011;22699;51.034;3.730;2022-07-10T03:44:53;6.78;;;3.95;;
36715;SDS011;22699;51.034;3.730;2022-07-10T03:47:25;8.50;;;3.83;;
36715;SDS011;22699;51.034;3.730;2022-07-10T03:49:53;9.77;;;4.25;;
36715;SDS011;22699;51.034;3.730;2022-07-10T03:52:19;8.85;;;4.47;;
36715;SDS011;22699;51.034;3.730;2022-07-10T03:54:44;5.78;;;4.85;;
36715;SDS011;22699;51.034;3.730;2022-07-10T03:57:10;9.90;;;5.38;;
36715;SDS011;22699;51.034;3.730;2022-07-10T03:59:55;5.80;;;4.30;;
36715;SDS011;22699;51.034;3.730;2022-07-10T04:02:23;8.85;;;4.75;;
36715;SDS011;22699;51.034;3.730;2022-07-10T04:04:49;7.65;;;4.90;;
36715;SDS011;22699;51.034;3.730;2022-07-10T04:07:15;9.43;;;4.90;;
36715;SDS011;22699;51.034;3.730;2022-07-10T04:12:11;10.93;;;4.28;;
36715;SDS011;22699;51.034;3.730;2022-07-10T04:14:37;11.73;;;5.25;;
36715;SDS011;22699;51.034;3.730;2022-07-10T04:17:04;9.73;;;4.60;;
36715;SDS011;22699;51.034;3.730;2022-07-10T04:19:32;4.97;;;4.03;;
36715;SDS011;22699;51.034;3.730;2022-07-10T04:24:28;7.22;;;3.83;;
36715;SDS011;22699;51.034;3.730;2022-07-10T04:26:53;7.25;;;4.30;;
36715;SDS011;22699;51.034;3.730;2022-07-10T04:29:20;8.63;;;4.45;;
36715;SDS011;22699;51.034;3.730;2022-07-10T04:31:45;8.63;;;3.97;;
36715;SDS011;22699;51.034;3.730;2022-07-10T04:34:11;10.52;;;3.92;;
36715;SDS011;22699;51.034;3.730;2022-07-10T04:36:38;10.93;;;3.80;;
36715;SDS011;22699;51.034;3.730;2022-07-10T04:39:04;8.27;;;4.00;;
36715;SDS011;22699;51.034;3.730;2022-07-10T04:41:30;5.88;;;3.15;;
36715;SDS011;22699;51.034;3.730;2022-07-10T04:43:58;6.22;;;3.05;;
36715;SDS011;22699;51.034;3.730;2022-07-10T04:46:24;7.75;;;3.78;;
36715;SDS011;22699;51.034;3.730;2022-07-10T04:48:51;4.50;;;3.10;;
36715;SDS011;22699;51.034;3.730;2022-07-10T04:51:16;7.68;;;3.10;;
36715;SDS011;22699;51.034;3.730;2022-07-10T04:53:44;7.18;;;2.70;;
36715;SDS011;22699;51.034;3.730;2022-07-10T04:56:10;4.25;;;2.92;;
36715;SDS011;22699;51.034;3.730;2022-07-10T04:58:36;7.07;;;3.42;;
36715;SDS011;22699;51.034;3.730;2022-07-10T05:01:01;7.00;;;3.72;;
36715;SDS011;22699;51.034;3.730;2022-07-10T05:03:28;5.40;;;2.67;;
36715;SDS011;22699;51.034;3.730;2022-07-10T05:05:54;7.88;;;2.50;;
36715;SDS011;22699;51.034;3.730;2022-07-10T05:08:20;6.40;;;2.95;;
36715;SDS011;22699;51.034;3.730;2022-07-10T05:10:45;7.78;;;2.30;;
36715;SDS011;22699;51.034;3.730;2022-07-10T05:13:11;6.65;;;3.03;;
36715;SDS011;22699;51.034;3.730;2022-07-10T05:15:37;6.32;;;2.80;;
36715;SDS011;22699;51.034;3.730;2022-07-10T05:18:03;4.88;;;3.10;;
36715;SDS011;22699;51.034;3.730;2022-07-10T05:20:31;5.63;;;2.53;;
36715;SDS011;22699;51.034;3.730;2022-07-10T05:22:57;9.27;;;2.60;;
36715;SDS011;22699;51.034;3.730;2022-07-10T05:25:23;7.72;;;2.47;;
36715;SDS011;22699;51.034;3.730;2022-07-10T05:27:51;8.02;;;2.67;;
36715;SDS011;22699;51.034;3.730;2022-07-10T05:30:17;5.90;;;2.17;;
36715;SDS011;22699;51.034;3.730;2022-07-10T05:32:43;5.43;;;2.40;;
36715;SDS011;22699;51.034;3.730;2022-07-10T05:35:11;5.47;;;2.45;;
36715;SDS011;22699;51.034;3.730;2022-07-10T05:37:38;4.97;;;2.35;;
36715;SDS011;22699;51.034;3.730;2022-07-10T05:40:04;5.80;;;1.85;;
36715;SDS011;22699;51.034;3.730;2022-07-10T05:42:30;3.30;;;1.92;;
36715;SDS011;22699;51.034;3.730;2022-07-10T05:44:56;4.70;;;2.00;;
36715;SDS011;22699;51.034;3.730;2022-07-10T05:47:21;2.17;;;1.23;;
36715;SDS011;22699;51.034;3.730;2022-07-10T05:49:48;6.90;;;1.45;;
36715;SDS011;22699;51.034;3.730;2022-07-10T05:52:14;4.43;;;1.98;;
36715;SDS011;22699;51.034;3.730;2022-07-10T05:54:39;6.35;;;1.60;;
36715;SDS011;22699;51.034;3.730;2022-07-10T05:57:06;4.38;;;1.35;;
36715;SDS011;22699;51.034;3.730;2022-07-10T05:59:35;7.25;;;1.88;;
36715;SDS011;22699;51.034;3.730;2022-07-10T06:02:01;3.67;;;1.63;;
36715;SDS011;22699;51.034;3.730;2022-07-10T06:04:29;3.10;;;1.20;;
36715;SDS011;22699;51.034;3.730;2022-07-10T06:06:55;2.70;;;1.10;;
36715;SDS011;22699;51.034;3.730;2022-07-10T06:09:21;3.30;;;1.38;;
36715;SDS011;22699;51.034;3.730;2022-07-10T06:11:48;4.72;;;1.67;;
36715;SDS011;22699;51.034;3.730;2022-07-10T06:14:15;5.45;;;1.63;;
36715;SDS011;22699;51.034;3.730;2022-07-10T06:16:41;5.88;;;1.52;;
36715;SDS011;22699;51.034;3.730;2022-07-10T06:19:07;4.63;;;2.10;;
36715;SDS011;22699;51.034;3.730;2022-07-10T06:21:34;6.90;;;1.63;;
36715;SDS011;22699;51.034;3.730;2022-07-10T06:24:00;3.05;;;1.13;;
36715;SDS011;22699;51.034;3.730;2022-07-10T06:26:26;3.55;;;1.15;;
36715;SDS011;22699;51.034;3.730;2022-07-10T06:28:52;5.70;;;1.48;;
36715;SDS011;22699;51.034;3.730;2022-07-10T06:31:19;5.45;;;1.13;;
36715;SDS011;22699;51.034;3.730;2022-07-10T06:33:46;4.75;;;1.15;;
36715;SDS011;22699;51.034;3.730;2022-07-10T06:36:15;3.42;;;1.20;;
36715;SDS011;22699;51.034;3.730;2022-07-10T06:38:42;3.92;;;1.17;;
36715;SDS011;22699;51.034;3.730;2022-07-10T06:41:08;2.65;;;0.90;;
36715;SDS011;22699;51.034;3.730;2022-07-10T06:43:34;2.20;;;0.85;;
36715;SDS011;22699;51.034;3.730;2022-07-10T06:46:01;4.07;;;0.98;;
36715;SDS011;22699;51.034;3.730;2022-07-10T06:48:26;4.53;;;1.17;;
36715;SDS011;22699;51.034;3.730;2022-07-10T06:50:54;5.82;;;1.02;;
36715;SDS011;22699;51.034;3.730;2022-07-10T06:53:21;2.22;;;1.00;;
36715;SDS011;22699;51.034;3.730;2022-07-10T06:58:20;6.05;;;1.10;;
36715;SDS011;22699;51.034;3.730;2022-07-10T07:00:46;6.43;;;0.90;;
36715;SDS011;22699;51.034;3.730;2022-07-10T07:03:12;5.28;;;1.40;;
36715;SDS011;22699;51.034;3.730;2022-07-10T07:05:38;3.85;;;0.95;;
36715;SDS011;22699;51.034;3.730;2022-07-10T07:08:05;2.35;;;0.80;;
36715;SDS011;22699;51.034;3.730;2022-07-10T07:10:31;3.42;;;1.10;;
36715;SDS011;22699;51.034;3.730;2022-07-10T07:12:56;5.78;;;1.00;;
36715;SDS011;22699;51.034;3.730;2022-07-10T07:15:22;3.25;;;1.85;;
36715;SDS011;22699;51.034;3.730;2022-07-10T07:17:49;2.45;;;1.00;;
36715;SDS011;22699;51.034;3.730;2022-07-10T07:20:36;3.00;;;1.15;;
36715;SDS011;22699;51.034;3.730;2022-07-10T07:23:21;3.30;;;1.33;;
36715;SDS011;22699;51.034;3.730;2022-07-10T07:25:48;3.55;;;1.08;;
36715;SDS011;22699;51.034;3.730;2022-07-10T07:28:14;2.30;;;1.00;;
36715;SDS011;22699;51.034;3.730;2022-07-10T07:30:43;3.30;;;0.93;;
36715;SDS011;22699;51.034;3.730;2022-07-10T07:33:09;4.80;;;1.17;;
36715;SDS011;22699;51.034;3.730;2022-07-10T07:35:34;3.33;;;1.00;;
36715;SDS011;22699;51.034;3.730;2022-07-10T07:38:01;4.68;;;1.27;;
36715;SDS011;22699;51.034;3.730;2022-07-10T07:40:27;3.28;;;0.98;;
36715;SDS011;22699;51.034;3.730;2022-07-10T07:42:54;3.85;;;1.35;;
36715;SDS011;22699;51.034;3.730;2022-07-10T07:45:20;3.95;;;0.98;;
36715;SDS011;22699;51.034;3.730;2022-07-10T07:47:47;2.83;;;0.70;;
36715;SDS011;22699;51.034;3.730;2022-07-10T07:50:15;2.92;;;0.88;;
36715;SDS011;22699;51.034;3.730;2022-07-10T07:52:42;3.55;;;1.08;;
36715;SDS011;22699;51.034;3.730;2022-07-10T07:55:09;2.75;;;0.77;;
36715;SDS011;22699;51.034;3.730;2022-07-10T07:57:35;4.30;;;1.10;;
36715;SDS011;22699;51.034;3.730;2022-07-10T08:00:02;5.47;;;1.25;;
36715;SDS011;22699;51.034;3.730;2022-07-10T08:02:29;2.60;;;0.88;;
36715;SDS011;22699;51.034;3.730;2022-07-10T08:04:54;3.55;;;1.20;;
36715;SDS011;22699;51.034;3.730;2022-07-10T08:07:20;6.18;;;1.58;;
36715;SDS011;22699;51.034;3.730;2022-07-10T08:09:45;4.28;;;0.95;;
36715;SDS011;22699;51.034;3.730;2022-07-10T08:12:11;4.28;;;1.25;;
36715;SDS011;22699;51.034;3.730;2022-07-10T08:14:36;3.47;;;1.42;;
36715;SDS011;22699;51.034;3.730;2022-07-10T08:17:03;3.45;;;1.13;;
36715;SDS011;22699;51.034;3.730;2022-07-10T08:19:29;3.42;;;1.10;;
36715;SDS011;22699;51.034;3.730;2022-07-10T08:21:54;3.00;;;1.45;;
36715;SDS011;22699;51.034;3.730;2022-07-10T08:24:20;3.88;;;1.00;;
36715;SDS011;22699;51.034;3.730;2022-07-10T08:26:45;3.25;;;1.30;;
36715;SDS011;22699;51.034;3.730;2022-07-10T08:29:11;3.08;;;1.13;;
36715;SDS011;22699;51.034;3.730;2022-07-10T08:31:37;4.28;;;1.20;;
36715;SDS011;22699;51.034;3.730;2022-07-10T08:34:04;4.07;;;1.75;;
36715;SDS011;22699;51.034;3.730;2022-07-10T08:36:30;4.50;;;1.45;;
36715;SDS011;22699;51.034;3.730;2022-07-10T08:38:56;4.13;;;1.60;;
36715;SDS011;22699;51.034;3.730;2022-07-10T08:41:25;2.78;;;1.40;;
36715;SDS011;22699;51.034;3.730;2022-07-10T08:43:52;6.68;;;2.10;;
36715;SDS011;22699;51.034;3.730;2022-07-10T08:46:17;2.47;;;1.30;;
36715;SDS011;22699;51.034;3.730;2022-07-10T08:48:46;3.33;;;1.52;;
36715;SDS011;22699;51.034;3.730;2022-07-10T08:56:09;5.07;;;1.92;;
36715;SDS011;22699;51.034;3.730;2022-07-10T08:58:36;6.30;;;1.85;;
36715;SDS011;22699;51.034;3.730;2022-07-10T09:01:05;5.88;;;1.83;;
36715;SDS011;22699;51.034;3.730;2022-07-10T09:03:31;3.25;;;1.08;;
36715;SDS011;22699;51.034;3.730;2022-07-10T09:05:56;1.90;;;1.20;;
36715;SDS011;22699;51.034;3.730;2022-07-10T09:08:25;3.38;;;1.30;;
36715;SDS011;22699;51.034;3.730;2022-07-10T09:11:39;2.90;;;1.13;;
36715;SDS011;22699;51.034;3.730;2022-07-10T09:13:52;4.25;;;0.90;;
36715;SDS011;22699;51.034;3.730;2022-07-10T09:16:28;3.38;;;1.13;;
36715;SDS011;22699;51.034;3.730;2022-07-10T09:18:55;3.15;;;1.00;;
36715;SDS011;22699;51.034;3.730;2022-07-10T09:21:22;1.90;;;0.73;;
36715;SDS011;22699;51.034;3.730;2022-07-10T09:23:48;4.25;;;1.10;;
36715;SDS011;22699;51.034;3.730;2022-07-10T09:26:16;4.25;;;0.80;;
36715;SDS011;22699;51.034;3.730;2022-07-10T09:28:43;4.77;;;0.93;;
36715;SDS011;22699;51.034;3.730;2022-07-10T09:31:08;3.40;;;0.82;;
36715;SDS011;22699;51.034;3.730;2022-07-10T09:33:34;3.35;;;0.70;;
36715;SDS011;22699;51.034;3.730;2022-07-10T09:36:05;6.38;;;0.88;;
36715;SDS011;22699;51.034;3.730;2022-07-10T09:41:21;3.30;;;0.80;;
36715;SDS011;22699;51.034;3.730;2022-07-10T09:43:52;4.32;;;1.00;;
36715;SDS011;22699;51.034;3.730;2022-07-10T09:48:47;3.38;;;1.10;;
36715;SDS011;22699;51.034;3.730;2022-07-10T09:51:13;3.40;;;1.02;;
36715;SDS011;22699;51.034;3.730;2022-07-10T09:53:40;3.30;;;1.27;;
36715;SDS011;22699;51.034;3.730;2022-07-10T09:56:10;3.67;;;1.08;;
36715;SDS011;22699;51.034;3.730;2022-07-10T09:58:38;3.10;;;0.90;;
36715;SDS011;22699;51.034;3.730;2022-07-10T10:01:05;3.60;;;0.95;;
36715;SDS011;22699;51.034;3.730;2022-07-10T10:03:33;4.63;;;0.90;;
36715;SDS011;22699;51.034;3.730;2022-07-10T10:06:15;4.53;;;0.88;;
36715;SDS011;22699;51.034;3.730;2022-07-10T10:11:24;4.15;;;0.95;;
36715;SDS011;22699;51.034;3.730;2022-07-10T10:13:51;5.70;;;1.50;;
36715;SDS011;22699;51.034;3.730;2022-07-10T10:16:21;3.15;;;0.80;;
36715;SDS011;22699;51.034;3.730;2022-07-10T10:18:49;2.88;;;0.80;;
36715;SDS011;22699;51.034;3.730;2022-07-10T10:21:34;5.32;;;1.27;;
36715;SDS011;22699;51.034;3.730;2022-07-10T10:24:01;2.53;;;1.15;;
36715;SDS011;22699;51.034;3.730;2022-07-10T10:26:27;8.15;;;1.42;;
36715;SDS011;22699;51.034;3.730;2022-07-10T10:28:54;4.50;;;1.15;;
36715;SDS011;22699;51.034;3.730;2022-07-10T10:31:23;4.03;;;1.05;;
36715;SDS011;22699;51.034;3.730;2022-07-10T10:33:54;2.55;;;0.80;;
36715;SDS011;22699;51.034;3.730;2022-07-10T10:37:02;3.45;;;0.77;;
36715;SDS011;22699;51.034;3.730;2022-07-10T10:39:11;3.40;;;1.05;;
36715;SDS011;22699;51.034;3.730;2022-07-10T10:41:41;3.22;;;0.95;;
36715;SDS011;22699;51.034;3.730;2022-07-10T10:46:59;3.47;;;0.95;;
36715;SDS011;22699;51.034;3.730;2022-07-10T10:49:28;5.22;;;1.45;;
36715;SDS011;22699;51.034;3.730;2022-07-10T10:52:16;4.22;;;0.80;;
36715;SDS011;22699;51.034;3.730;2022-07-10T11:00:04;5.03;;;0.88;;
36715;SDS011;22699;51.034;3.730;2022-07-10T11:02:38;3.90;;;0.93;;
36715;SDS011;22699;51.034;3.730;2022-07-10T11:07:54;5.28;;;0.90;;
36715;SDS011;22699;51.034;3.730;2022-07-10T11:10:34;1.63;;;0.57;;
36715;SDS011;22699;51.034;3.730;2022-07-10T11:13:05;2.90;;;0.88;;
36715;SDS011;22699;51.034;3.730;2022-07-10T11:18:17;2.58;;;0.88;;
36715;SDS011;22699;51.034;3.730;2022-07-10T11:20:48;1.35;;;0.55;;
36715;SDS011;22699;51.034;3.730;2022-07-10T11:26:24;3.50;;;0.63;;
36715;SDS011;22699;51.034;3.730;2022-07-10T11:29:01;2.38;;;0.85;;
36715;SDS011;22699;51.034;3.730;2022-07-10T11:31:31;3.45;;;1.10;;
36715;SDS011;22699;51.034;3.730;2022-07-10T11:34:02;5.20;;;0.90;;
36715;SDS011;22699;51.034;3.730;2022-07-10T11:36:28;4.57;;;0.90;;
36715;SDS011;22699;51.034;3.730;2022-07-10T11:38:57;3.42;;;0.80;;
36715;SDS011;22699;51.034;3.730;2022-07-10T11:41:25;3.35;;;1.05;;
36715;SDS011;22699;51.034;3.730;2022-07-10T11:43:54;2.63;;;0.70;;
36715;SDS011;22699;51.034;3.730;2022-07-10T11:46:25;4.60;;;0.70;;
36715;SDS011;22699;51.034;3.730;2022-07-10T11:48:52;2.20;;;0.80;;
36715;SDS011;22699;51.034;3.730;2022-07-10T11:51:27;2.55;;;0.68;;
36715;SDS011;22699;51.034;3.730;2022-07-10T11:54:16;2.55;;;0.80;;
36715;SDS011;22699;51.034;3.730;2022-07-10T11:56:50;3.35;;;0.82;;
36715;SDS011;22699;51.034;3.730;2022-07-10T11:59:18;4.97;;;0.88;;
36715;SDS011;22699;51.034;3.730;2022-07-10T12:01:51;2.33;;;0.50;;
36715;SDS011;22699;51.034;3.730;2022-07-10T12:04:23;4.18;;;0.88;;
36715;SDS011;22699;51.034;3.730;2022-07-10T12:06:55;4.90;;;0.93;;
36715;SDS011;22699;51.034;3.730;2022-07-10T12:14:27;2.50;;;0.60;;
36715;SDS011;22699;51.034;3.730;2022-07-10T12:16:54;4.60;;;0.98;;
36715;SDS011;22699;51.034;3.730;2022-07-10T12:19:37;3.20;;;0.70;;
36715;SDS011;22699;51.034;3.730;2022-07-10T12:22:05;3.30;;;0.60;;
36715;SDS011;22699;51.034;3.730;2022-07-10T12:24:32;4.07;;;0.80;;
36715;SDS011;22699;51.034;3.730;2022-07-10T12:26:58;3.50;;;0.63;;
36715;SDS011;22699;51.034;3.730;2022-07-10T12:29:24;2.72;;;0.93;;
36715;SDS011;22699;51.034;3.730;2022-07-10T12:31:59;1.80;;;0.80;;
36715;SDS011;22699;51.034;3.730;2022-07-10T12:34:32;3.17;;;0.52;;
36715;SDS011;22699;51.034;3.730;2022-07-10T12:39:35;1.83;;;0.65;;
36715;SDS011;22699;51.034;3.730;2022-07-10T12:42:05;3.20;;;0.95;;
36715;SDS011;22699;51.034;3.730;2022-07-10T12:44:36;2.23;;;0.70;;
36715;SDS011;22699;51.034;3.730;2022-07-10T12:47:04;2.47;;;0.70;;
36715;SDS011;22699;51.034;3.730;2022-07-10T12:49:52;2.88;;;0.80;;
36715;SDS011;22699;51.034;3.730;2022-07-10T12:52:27;2.10;;;0.68;;
36715;SDS011;22699;51.034;3.730;2022-07-10T12:55:07;3.55;;;0.80;;
36715;SDS011;22699;51.034;3.730;2022-07-10T12:57:55;2.08;;;0.90;;
36715;SDS011;22699;51.034;3.730;2022-07-10T13:00:27;2.45;;;0.77;;
36715;SDS011;22699;51.034;3.730;2022-07-10T13:03:03;2.67;;;0.73;;
36715;SDS011;22699;51.034;3.730;2022-07-10T13:08:21;4.57;;;0.80;;
36715;SDS011;22699;51.034;3.730;2022-07-10T13:10:54;3.15;;;0.60;;
36715;SDS011;22699;51.034;3.730;2022-07-10T13:13:21;5.95;;;0.90;;
36715;SDS011;22699;51.034;3.730;2022-07-10T13:15:47;3.17;;;0.85;;
36715;SDS011;22699;51.034;3.730;2022-07-10T13:18:21;1.70;;;0.65;;
36715;SDS011;22699;51.034;3.730;2022-07-10T13:20:52;2.72;;;0.80;;
36715;SDS011;22699;51.034;3.730;2022-07-10T13:23:20;2.50;;;0.70;;
36715;SDS011;22699;51.034;3.730;2022-07-10T13:25:49;3.15;;;0.70;;
36715;SDS011;22699;51.034;3.730;2022-07-10T13:28:15;2.53;;;0.68;;
36715;SDS011;22699;51.034;3.730;2022-07-10T13:30:43;3.33;;;0.80;;
36715;SDS011;22699;51.034;3.730;2022-07-10T13:33:09;1.90;;;0.60;;
36715;SDS011;22699;51.034;3.730;2022-07-10T13:35:34;2.55;;;0.93;;
36715;SDS011;22699;51.034;3.730;2022-07-10T13:38:01;4.18;;;1.15;;
36715;SDS011;22699;51.034;3.730;2022-07-10T13:40:28;2.38;;;0.70;;
36715;SDS011;22699;51.034;3.730;2022-07-10T13:42:58;1.75;;;0.60;;
36715;SDS011;22699;51.034;3.730;2022-07-10T13:45:24;1.70;;;0.60;;
36715;SDS011;22699;51.034;3.730;2022-07-10T13:47:53;3.28;;;0.80;;
36715;SDS011;22699;51.034;3.730;2022-07-10T13:50:21;2.13;;;0.60;;
36715;SDS011;22699;51.034;3.730;2022-07-10T13:52:49;2.20;;;0.68;;
36715;SDS011;22699;51.034;3.730;2022-07-10T13:55:16;3.65;;;0.80;;
36715;SDS011;22699;51.034;3.730;2022-07-10T13:57:43;2.58;;;0.80;;
36715;SDS011;22699;51.034;3.730;2022-07-10T14:00:09;4.30;;;0.95;;
36715;SDS011;22699;51.034;3.730;2022-07-10T14:02:37;4.32;;;0.70;;
36715;SDS011;22699;51.034;3.730;2022-07-10T14:05:03;4.43;;;1.73;;
36715;SDS011;22699;51.034;3.730;2022-07-10T14:07:30;5.80;;;1.00;;
36715;SDS011;22699;51.034;3.730;2022-07-10T14:09:55;1.35;;;0.57;;
36715;SDS011;22699;51.034;3.730;2022-07-10T14:12:21;1.58;;;0.57;;
36715;SDS011;22699;51.034;3.730;2022-07-10T14:14:47;4.65;;;1.00;;
36715;SDS011;22699;51.034;3.730;2022-07-10T14:17:13;1.42;;;0.50;;
36715;SDS011;22699;51.034;3.730;2022-07-10T14:19:39;1.48;;;0.80;;
36715;SDS011;22699;51.034;3.730;2022-07-10T14:22:06;2.63;;;0.63;;
36715;SDS011;22699;51.034;3.730;2022-07-10T14:24:33;1.88;;;0.85;;
36715;SDS011;22699;51.034;3.730;2022-07-10T14:26:59;1.60;;;0.75;;
36715;SDS011;22699;51.034;3.730;2022-07-10T14:29:25;3.65;;;0.68;;
36715;SDS011;22699;51.034;3.730;2022-07-10T14:31:52;2.15;;;0.60;;
36715;SDS011;22699;51.034;3.730;2022-07-10T14:34:18;1.42;;;0.52;;
36715;SDS011;22699;51.034;3.730;2022-07-10T14:36:44;1.33;;;0.60;;
36715;SDS011;22699;51.034;3.730;2022-07-10T14:39:10;1.92;;;0.60;;
36715;SDS011;22699;51.034;3.730;2022-07-10T14:41:39;1.50;;;0.60;;
36715;SDS011;22699;51.034;3.730;2022-07-10T14:44:06;1.85;;;0.70;;
36715;SDS011;22699;51.034;3.730;2022-07-10T14:46:32;2.50;;;0.40;;
36715;SDS011;22699;51.034;3.730;2022-07-10T14:48:59;1.88;;;0.70;;
36715;SDS011;22699;51.034;3.730;2022-07-10T14:51:25;4.35;;;1.27;;
36715;SDS011;22699;51.034;3.730;2022-07-10T14:53:50;1.08;;;0.55;;
36715;SDS011;22699;51.034;3.730;2022-07-10T14:56:16;0.85;;;0.60;;
36715;SDS011;22699;51.034;3.730;2022-07-10T14:58:44;2.30;;;0.80;;
36715;SDS011;22699;51.034;3.730;2022-07-10T15:01:09;1.83;;;0.60;;
36715;SDS011;22699;51.034;3.730;2022-07-10T15:06:04;1.90;;;0.57;;
36715;SDS011;22699;51.034;3.730;2022-07-10T15:08:30;0.73;;;0.50;;
36715;SDS011;22699;51.034;3.730;2022-07-10T15:10:56;2.35;;;0.70;;
36715;SDS011;22699;51.034;3.730;2022-07-10T15:13:24;1.75;;;0.57;;
36715;SDS011;22699;51.034;3.730;2022-07-10T15:15:49;2.72;;;0.70;;
36715;SDS011;22699;51.034;3.730;2022-07-10T15:18:16;0.95;;;0.55;;
36715;SDS011;22699;51.034;3.730;2022-07-10T15:20:43;1.27;;;0.77;;
36715;SDS011;22699;51.034;3.730;2022-07-10T15:23:10;1.42;;;0.43;;
36715;SDS011;22699;51.034;3.730;2022-07-10T15:25:37;2.42;;;0.50;;
36715;SDS011;22699;51.034;3.730;2022-07-10T15:28:04;2.00;;;0.80;;
36715;SDS011;22699;51.034;3.730;2022-07-10T15:30:34;1.25;;;0.50;;
36715;SDS011;22699;51.034;3.730;2022-07-10T15:33:02;2.42;;;0.70;;
36715;SDS011;22699;51.034;3.730;2022-07-10T15:35:29;2.70;;;0.80;;
36715;SDS011;22699;51.034;3.730;2022-07-10T15:37:56;2.88;;;0.60;;
36715;SDS011;22699;51.034;3.730;2022-07-10T15:40:27;4.40;;;0.67;;
36715;SDS011;22699;51.034;3.730;2022-07-10T15:42:57;3.55;;;0.80;;
36715;SDS011;22699;51.034;3.730;2022-07-10T15:45:23;1.13;;;0.50;;
36715;SDS011;22699;51.034;3.730;2022-07-10T15:47:50;3.28;;;0.77;;
36715;SDS011;22699;51.034;3.730;2022-07-10T15:50:15;1.75;;;0.63;;
36715;SDS011;22699;51.034;3.730;2022-07-10T15:52:42;2.28;;;0.50;;
36715;SDS011;22699;51.034;3.730;2022-07-10T15:55:10;1.35;;;0.32;;